Time;durP1;ratioP1;P1;durP2;ratioP2;P2;SDS_P1;SDS_P2;PMS_P1;PMS_P2;Temp;Humidity;BMP_temperature;BMP_pressure;BME280_temperature;BME280_humidity;BME280_pressure;Samples;Min_cycle;Max_cycle;Signal;HPM_P1;HPM_P2
2022/05/31 00:00:05;;;;;;;8.25;3.90;;;;;;;6.28;100.00;162207.06;5072128;28;20021;-62
2022/05/31 00:02:30;;;;;;;6.32;4.07;;;;;;;6.25;100.00;162199.03;5073263;28;20064;-62
2022/05/31 00:04:55;;;;;;;7.53;4.90;;;;;;;6.19;100.00;162184.22;5072657;28;20468;-61
2022/05/31 00:07:21;;;;;;;8.20;5.75;;;;;;;6.14;100.00;162172.09;5071992;28;20403;-62
2022/05/31 00:09:46;;;;;;;3.85;3.55;;;;;;;6.06;100.00;162149.22;5073260;28;20050;-62
2022/05/31 00:12:12;;;;;;;4.95;4.55;;;;;;;6.05;100.00;162146.53;5071683;28;20048;-62
2022/05/31 00:14:38;;;;;;;6.18;4.40;;;;;;;6.01;100.00;162137.09;5073215;28;20039;-61
2022/05/31 00:17:05;;;;;;;5.57;5.00;;;;;;;5.98;100.00;162130.34;5071735;28;20052;-62
2022/05/31 00:19:31;;;;;;;6.70;5.93;;;;;;;5.98;100.00;162128.97;5072974;28;20020;-61
2022/05/31 00:22:04;;;;;;;5.20;4.80;;;;;;;5.94;100.00;162119.53;5071408;28;20457;-61
2022/05/31 00:24:30;;;;;;;6.30;4.32;;;;;;;5.97;100.00;162127.63;5073005;28;20517;-62
2022/05/31 00:26:56;;;;;;;6.78;5.10;;;;;;;5.99;100.00;162131.72;5071085;28;20060;-61
2022/05/31 00:29:21;;;;;;;6.57;5.32;;;;;;;6.00;100.00;162135.72;5073144;28;20020;-61
2022/05/31 00:31:48;;;;;;;5.10;4.70;;;;;;;5.95;100.00;162120.91;5071233;28;20041;-62
2022/05/31 00:34:14;;;;;;;5.60;5.10;;;;;;;6.01;100.00;162138.44;5072251;28;20082;-61
2022/05/31 00:36:44;;;;;;;6.28;5.55;;;;;;;6.07;100.00;162151.94;5071337;28;20051;-62
2022/05/31 00:39:09;;;;;;;6.22;5.72;;;;;;;6.09;100.00;162157.28;5072818;28;20033;-62
2022/05/31 00:41:35;;;;;;;6.35;5.72;;;;;;;6.07;100.00;162153.25;5070912;28;20066;-61
2022/05/31 00:44:04;;;;;;;8.60;6.72;;;;;;;6.14;100.00;162170.75;5072915;28;20032;-61
2022/05/31 00:46:48;;;;;;;9.57;5.78;;;;;;;6.17;100.00;162180.19;5071270;28;20097;-62
2022/05/31 00:49:24;;;;;;;10.73;6.57;;;;;;;6.19;100.00;162184.22;5072332;28;20106;-61
2022/05/31 00:51:53;;;;;;;7.47;6.53;;;;;;;6.22;100.00;162190.94;5069797;28;20044;-63
2022/05/31 00:54:22;;;;;;;6.50;5.90;;;;;;;6.24;100.00;162197.66;5072349;28;20028;-62
2022/05/31 00:56:49;;;;;;;11.45;5.72;;;;;;;6.29;100.00;162211.09;5070227;28;20047;-62
2022/05/31 00:59:19;;;;;;;8.38;5.30;;;;;;;6.27;100.00;162205.75;5072449;28;20467;-61
2022/05/31 01:01:51;;;;;;;10.43;7.65;;;;;;;6.29;100.00;162211.09;5070750;28;20056;-61
2022/05/31 01:04:17;;;;;;;7.88;6.38;;;;;;;6.27;100.00;162205.75;5072029;28;20028;-61
2022/05/31 01:06:42;;;;;;;7.15;6.55;;;;;;;6.24;100.00;162197.66;5070388;28;20459;-61
2022/05/31 01:09:08;;;;;;;6.95;6.30;;;;;;;6.23;100.00;162193.63;5072357;28;20028;-61
2022/05/31 01:11:39;;;;;;;7.65;6.78;;;;;;;6.20;100.00;162186.91;5070566;28;20037;-64
2022/05/31 01:14:05;;;;;;;7.00;6.30;;;;;;;6.21;100.00;162188.22;5072162;28;20028;-64
2022/05/31 01:16:31;;;;;;;6.45;5.85;;;;;;;6.18;100.00;162181.50;5070717;28;20101;-64
2022/05/31 01:18:56;;;;;;;9.48;6.10;;;;;;;6.18;100.00;162181.50;5071611;28;20024;-64
2022/05/31 01:21:22;;;;;;;9.00;6.60;;;;;;;6.16;100.00;162177.50;5070485;28;20465;-64
2022/05/31 01:24:06;;;;;;;10.05;6.88;;;;;;;6.17;100.00;162178.81;5071529;28;20421;-64
2022/05/31 01:26:44;;;;;;;9.75;5.97;;;;;;;6.17;100.00;162178.81;5070199;28;20041;-64
2022/05/31 01:29:19;;;;;;;9.88;7.40;;;;;;;6.21;100.00;162189.59;5072129;28;20017;-64
2022/05/31 01:31:52;;;;;;;9.68;6.18;;;;;;;6.23;100.00;162194.94;5070262;28;20387;-64
2022/05/31 01:34:28;;;;;;;11.75;7.78;;;;;;;6.23;100.00;162194.94;5071099;28;20165;-64
2022/05/31 01:36:55;;;;;;;11.88;7.85;;;;;;;6.25;100.00;162200.34;5070266;28;20402;-64
2022/05/31 01:39:41;;;;;;;10.50;8.35;;;;;;;6.27;100.00;162205.75;5071747;28;20078;-64
2022/05/31 01:42:18;;;;;;;8.57;5.85;;;;;;;6.26;100.00;162203.06;5069997;28;20055;-64
2022/05/31 01:44:48;;;;;;;6.65;6.03;;;;;;;6.25;100.00;162200.34;5071461;28;20387;-64
2022/05/31 01:47:14;;;;;;;10.85;7.40;;;;;;;6.23;100.00;162193.63;5070117;28;20044;-64
2022/05/31 01:49:44;;;;;;;9.82;7.32;;;;;;;6.20;100.00;162186.91;5070723;28;20089;-64
2022/05/31 01:52:10;;;;;;;7.53;6.85;;;;;;;6.21;100.00;162188.22;5069977;28;20127;-64
2022/05/31 01:54:36;;;;;;;8.10;7.28;;;;;;;6.18;100.00;162181.50;5071366;28;20025;-64
2022/05/31 01:57:05;;;;;;;7.28;6.20;;;;;;;6.20;100.00;162186.91;5069351;28;20044;-64
2022/05/31 01:59:35;;;;;;;7.70;7.00;;;;;;;6.21;100.00;162188.22;5071376;28;20024;-64
2022/05/31 02:02:02;;;;;;;9.52;7.18;;;;;;;6.13;100.00;162168.06;5068840;28;20128;-62
2022/05/31 02:04:27;;;;;;;7.10;6.40;;;;;;;6.22;100.00;162190.94;5070782;28;20063;-62
2022/05/31 02:07:10;;;;;;;8.40;7.50;;;;;;;6.21;100.00;162189.59;5069568;28;20040;-62
2022/05/31 02:09:36;;;;;;;13.88;8.20;;;;;;;6.20;100.00;162186.91;5071412;28;20039;-62
2022/05/31 02:12:02;;;;;;;8.05;6.45;;;;;;;6.04;100.00;162145.16;5069138;28;20086;-62
2022/05/31 02:14:27;;;;;;;8.10;5.90;;;;;;;6.12;100.00;162165.38;5071074;28;20032;-62
2022/05/31 02:16:53;;;;;;;9.65;7.13;;;;;;;6.09;100.00;162157.28;5069270;28;20376;-62
2022/05/31 02:19:25;;;;;;;10.88;8.45;;;;;;;6.06;100.00;162149.22;5070310;28;20029;-62
2022/05/31 02:21:53;;;;;;;7.13;6.15;;;;;;;6.02;100.00;162139.81;5069313;28;20059;-62
2022/05/31 02:24:19;;;;;;;7.60;6.45;;;;;;;6.00;100.00;162134.41;5070879;28;20079;-63
2022/05/31 02:26:45;;;;;;;12.57;6.60;;;;;;;5.99;100.00;162133.09;5068942;28;20090;-63
2022/05/31 02:29:15;;;;;;;7.20;6.60;;;;;;;5.99;100.00;162133.09;5070852;28;20387;-62
2022/05/31 02:31:41;;;;;;;10.07;9.07;;;;;;;6.00;100.00;162134.41;5068826;28;20044;-62
2022/05/31 02:34:08;;;;;;;8.68;6.72;;;;;;;5.98;100.00;162130.34;5070498;28;20029;-62
2022/05/31 02:36:34;;;;;;;12.90;6.85;;;;;;;5.97;100.00;162127.63;5069301;28;20054;-63
2022/05/31 02:39:00;;;;;;;12.40;7.93;;;;;;;5.96;100.00;162123.56;5070215;28;20028;-63
2022/05/31 02:41:26;;;;;;;10.05;6.55;;;;;;;5.96;100.00;162123.56;5068678;28;20514;-63
2022/05/31 02:43:52;;;;;;;11.82;6.95;;;;;;;5.93;100.00;162115.53;5070454;28;20028;-63
2022/05/31 02:46:17;;;;;;;8.05;7.00;;;;;;;5.90;100.00;162108.81;5069184;28;20102;-62
2022/05/31 02:48:43;;;;;;;8.23;6.80;;;;;;;5.87;100.00;162102.06;5070039;28;20035;-63
2022/05/31 02:51:08;;;;;;;10.88;6.82;;;;;;;5.89;100.00;162106.09;5068864;28;20045;-63
2022/05/31 02:53:33;;;;;;;8.15;7.35;;;;;;;5.89;100.00;162106.09;5070714;28;20024;-63
2022/05/31 02:55:59;;;;;;;11.95;9.00;;;;;;;5.91;100.00;162110.13;5068530;28;20526;-63
2022/05/31 02:58:25;;;;;;;7.38;6.55;;;;;;;5.88;100.00;162103.41;5070352;28;20430;-63
2022/05/31 03:00:51;;;;;;;6.70;6.10;;;;;;;5.82;100.00;162087.25;5068457;28;20066;-63
2022/05/31 03:03:16;;;;;;;7.38;6.78;;;;;;;5.80;100.00;162081.88;5069987;28;20092;-62
2022/05/31 03:05:42;;;;;;;9.20;8.35;;;;;;;5.81;100.00;162084.56;5068707;28;20036;-60
2022/05/31 03:08:07;;;;;;;9.10;7.20;;;;;;;5.81;100.00;162084.56;5070249;28;20021;-61
2022/05/31 03:10:38;;;;;;;11.07;7.28;;;;;;;5.80;100.00;162081.88;5068586;28;20033;-62
2022/05/31 03:13:05;;;;;;;10.35;6.85;;;;;;;5.81;100.00;162084.56;5070482;28;20028;-61
2022/05/31 03:15:34;;;;;;;10.35;7.60;;;;;;;5.85;100.00;162095.31;5070868;28;20048;-61
2022/05/31 03:18:09;;;;;;;8.88;7.85;;;;;;;5.90;100.00;162108.81;5073862;28;20072;-62
2022/05/31 03:20:47;;;;;;;12.35;8.85;;;;;;;5.93;100.00;162116.84;5073098;28;20036;-62
2022/05/31 03:23:21;;;;;;;11.82;8.18;;;;;;;5.91;100.00;162111.50;5074600;28;20020;-62
2022/05/31 03:25:49;;;;;;;10.50;7.55;;;;;;;5.85;100.00;162096.69;5072261;28;20466;-62
2022/05/31 03:28:16;;;;;;;9.00;7.53;;;;;;;5.84;100.00;162093.97;5074288;28;20035;-62
2022/05/31 03:30:41;;;;;;;9.70;6.90;;;;;;;5.82;100.00;162087.25;5072377;28;20048;-61
2022/05/31 03:33:09;;;;;;;13.80;7.20;;;;;;;5.77;100.00;162075.16;5073934;28;20500;-61
2022/05/31 03:35:35;;;;;;;9.20;8.30;;;;;;;5.72;100.00;162063.03;5072838;28;20434;-61
2022/05/31 03:38:01;;;;;;;14.32;7.43;;;;;;;5.71;100.00;162060.34;5073667;28;20044;-61
2022/05/31 03:43:10;;;;;;;13.30;8.73;;;;;;;5.68;100.00;162052.28;5073916;28;20537;-62
2022/05/31 03:45:42;;;;;;;8.15;7.35;;;;;;;5.69;100.00;162055.00;5072612;28;20040;-61
2022/05/31 03:48:09;;;;;;;8.10;7.40;;;;;;;5.68;100.00;162052.28;5073504;28;20029;-61
2022/05/31 03:50:35;;;;;;;10.63;8.07;;;;;;;5.69;100.00;162055.00;5072286;28;20123;-61
2022/05/31 03:53:01;;;;;;;11.52;9.38;;;;;;;5.70;100.00;162057.63;5073656;28;20070;-61
2022/05/31 03:55:27;;;;;;;10.63;8.88;;;;;;;5.74;100.00;162065.72;5072183;28;20040;-61
2022/05/31 03:57:52;;;;;;;8.82;6.93;;;;;;;5.78;100.00;162076.47;5064203;28;20087;-62
2022/05/31 04:00:18;;;;;;;12.68;7.70;;;;;;;5.80;100.00;162081.88;5054713;28;20098;-63
2022/05/31 04:02:44;;;;;;;10.48;7.78;;;;;;;5.83;100.00;162091.28;5061352;28;20024;-63
2022/05/31 04:05:10;;;;;;;8.35;7.25;;;;;;;5.85;100.00;162095.31;5061769;28;20021;-63
2022/05/31 04:07:36;;;;;;;9.48;7.75;;;;;;;5.89;100.00;162106.09;5063546;28;20040;-63
2022/05/31 04:10:03;;;;;;;8.73;7.82;;;;;;;5.93;100.00;162116.84;5062474;28;20016;-63
2022/05/31 04:12:30;;;;;;;8.93;8.07;;;;;;;5.97;100.00;162126.25;5067039;28;20038;-60
2022/05/31 04:14:55;;;;;;;9.52;8.63;;;;;;;6.00;100.00;162134.41;5061145;28;20082;-59
2022/05/31 04:17:21;;;;;;;8.95;8.07;;;;;;;6.00;100.00;162135.72;5061953;28;20040;-59
2022/05/31 04:19:46;;;;;;;8.55;7.65;;;;;;;6.01;100.00;162138.44;5063762;28;20031;-59
2022/05/31 04:22:11;;;;;;;9.20;7.72;;;;;;;6.05;100.00;162146.53;5062936;28;20381;-59
2022/05/31 04:24:37;;;;;;;12.82;7.13;;;;;;;6.09;100.00;162158.66;5067158;28;20059;-59
2022/05/31 04:27:02;;;;;;;10.85;7.50;;;;;;;6.14;100.00;162170.75;5060759;28;20090;-62
2022/05/31 04:29:28;;;;;;;16.05;10.90;;;;;;;6.22;100.00;162190.94;5070723;28;20031;-62
2022/05/31 04:31:53;;;;;;;12.32;7.93;;;;;;;6.31;100.00;162216.50;5071050;28;20044;-62
2022/05/31 04:34:19;;;;;;;9.75;8.38;;;;;;;6.40;100.00;162238.03;5073035;28;20035;-62
2022/05/31 04:36:44;;;;;;;12.60;9.23;;;;;;;6.48;100.00;162259.59;5071474;28;20495;-62
2022/05/31 04:39:09;;;;;;;11.07;7.50;;;;;;;6.57;100.00;162283.81;5072544;28;20028;-62
2022/05/31 04:41:35;;;;;;;8.63;6.95;;;;;;;6.64;100.00;162302.69;5071543;28;20048;-62
2022/05/31 04:44:04;;;;;;;10.45;7.68;;;;;;;6.73;100.00;162324.22;5072570;28;20392;-63
2022/05/31 04:46:31;;;;;;;7.93;7.22;;;;;;;6.80;100.00;162343.06;5070955;28;20054;-62
2022/05/31 04:48:57;;;;;;;10.30;7.13;;;;;;;6.88;100.00;162364.63;5072769;28;20383;-63
2022/05/31 04:51:23;;;;;;;8.80;6.90;;;;;;;6.97;100.00;162388.81;5071373;28;20477;-62
2022/05/31 04:53:49;;;;;;;12.80;8.00;;;;;;;7.10;100.00;162422.50;5072339;28;20025;-62
2022/05/31 04:56:19;;;;;;;10.07;6.38;;;;;;;7.21;100.00;162449.47;5071361;28;20036;-62
2022/05/31 04:58:44;;;;;;;8.35;7.57;;;;;;;7.27;100.00;162466.94;5072310;28;20020;-62
2022/05/31 05:01:10;;;;;;;8.10;7.50;;;;;;;7.34;100.00;162483.09;5070743;28;20494;-60
2022/05/31 05:03:37;;;;;;;21.55;9.13;;;;;;;7.33;100.00;162480.44;5072470;28;20039;-60
2022/05/31 05:06:04;;;;;;;8.40;7.38;;;;;;;7.36;100.00;162489.88;5070893;28;20072;-60
2022/05/31 05:08:30;;;;;;;13.73;7.28;;;;;;;7.40;100.00;162499.28;5071898;28;20035;-60
2022/05/31 05:10:56;;;;;;;12.30;7.00;;;;;;;7.47;100.00;162518.16;5070840;28;20044;-60
2022/05/31 05:13:21;;;;;;;9.35;8.40;;;;;;;7.52;100.00;162531.59;5072176;28;20032;-60
2022/05/31 05:15:47;;;;;;;8.05;7.25;;;;;;;7.60;100.00;162553.16;5070215;28;20040;-60
2022/05/31 05:18:12;;;;;;;10.30;8.10;;;;;;;7.72;100.00;162582.78;5071975;28;20078;-60
2022/05/31 05:20:40;;;;;;;11.50;6.85;;;;;;;7.85;100.00;162617.84;5070056;28;20055;-59
2022/05/31 05:23:07;;;;;;;11.77;7.33;;;;;;;7.99;100.00;162654.19;5060792;28;20504;-58
2022/05/31 05:25:33;;;;;;;7.57;6.95;;;;;;;8.10;100.00;162682.50;5059449;28;20507;-61
2022/05/31 05:27:58;;;;;;;9.95;7.35;;;;;;;8.20;100.00;162709.47;5062342;28;20035;-59
2022/05/31 05:30:39;;;;;;;9.27;6.50;;;;;;;8.33;100.00;162741.81;5059125;28;20044;-60
2022/05/31 05:33:05;;;;;;;8.93;7.38;;;;;;;8.46;100.00;162775.50;5059295;28;20017;-59
2022/05/31 05:35:30;;;;;;;12.15;8.32;;;;;;;8.62;100.00;162817.34;5057755;28;20048;-59
2022/05/31 05:37:55;;;;;;;9.00;7.75;;;;;;;8.82;100.00;162869.94;5060426;28;20024;-59
2022/05/31 05:40:21;;;;;;;9.25;6.07;;;;;;;9.00;100.00;162918.50;5064529;28;20048;-59
2022/05/31 05:42:46;;;;;;;7.22;6.50;;;;;;;9.20;100.00;162971.03;5061439;28;20024;-59
2022/05/31 05:45:11;;;;;;;7.93;5.93;;;;;;;9.35;100.00;163008.81;5057784;28;20021;-59
2022/05/31 05:47:37;;;;;;;13.93;6.88;;;;;;;9.52;100.00;163054.69;5051697;28;20075;-59
2022/05/31 05:50:04;;;;;;;9.18;6.43;;;;;;;9.66;100.00;163091.13;5050103;28;20075;-59
2022/05/31 05:52:29;;;;;;;8.45;5.47;;;;;;;9.73;100.00;163107.31;5051052;28;20118;-59
2022/05/31 05:54:54;;;;;;;10.85;5.70;;;;;;;9.89;100.00;163149.09;5051236;28;20021;-59
2022/05/31 05:57:20;;;;;;;11.73;7.13;;;;;;;10.05;100.00;163192.28;5050130;28;20040;-59
2022/05/31 05:59:45;;;;;;;8.15;5.28;;;;;;;10.29;100.00;163254.38;5050873;28;20021;-59
2022/05/31 06:02:21;;;;;;;15.35;8.07;;;;;;;10.50;100.00;163309.72;5059262;28;20051;-59
2022/05/31 06:04:52;;;;;;;7.93;5.70;;;;;;;10.66;100.00;163351.59;5059851;28;20023;-59
2022/05/31 06:07:28;;;;;;;8.32;5.93;;;;;;;10.86;100.00;163402.88;5058402;28;20844;-59
2022/05/31 06:10:00;;;;;;;14.27;7.95;;;;;;;11.01;100.00;163443.38;5060430;28;20020;-59
2022/05/31 06:12:30;;;;;;;8.07;5.20;;;;;;;11.18;100.00;163486.59;5058338;28;20041;-59
2022/05/31 06:15:05;;;;;;;8.57;5.65;;;;;;;11.27;100.00;163510.94;5059714;28;20250;-59
2022/05/31 06:17:35;;;;;;;6.45;5.35;;;;;;;11.37;100.00;163536.56;5058639;28;20063;-59
2022/05/31 06:20:05;;;;;;;14.18;7.07;;;;;;;11.52;100.00;163575.72;5058095;28;20475;-59
2022/05/31 06:22:31;;;;;;;9.80;5.43;;;;;;;11.63;100.00;163605.47;5059767;28;20017;-59
2022/05/31 06:25:00;;;;;;;7.35;4.68;;;;;;;11.82;100.00;163654.06;5059638;28;20066;-59
2022/05/31 06:27:27;;;;;;;7.95;5.07;;;;;;;11.93;100.00;163683.81;5057961;28;20056;-59
2022/05/31 06:29:52;;;;;;;12.23;7.07;;;;;;;12.01;100.00;163705.47;5059819;28;20081;-59
2022/05/31 06:32:17;;;;;;;7.28;4.82;;;;;;;11.92;100.00;163681.09;5061317;28;20040;-59
2022/05/31 06:34:43;;;;;;;7.07;5.93;;;;;;;11.87;100.00;163667.59;5060429;28;20384;-60
2022/05/31 06:37:11;;;;;;;10.45;5.60;;;;;;;11.86;100.00;163666.22;5059922;28;20131;-59
2022/05/31 06:39:39;;;;;;;7.40;5.47;;;;;;;11.82;100.00;163654.06;5060611;28;20021;-59
2022/05/31 06:42:05;;;;;;;8.30;4.47;;;;;;;11.86;100.00;163666.22;5057432;28;20119;-59
2022/05/31 06:44:35;;;;;;;8.30;5.80;;;;;;;12.10;100.00;163727.09;5059990;28;20029;-58
2022/05/31 06:47:01;;;;;;;10.88;5.82;;;;;;;12.33;100.00;163789.22;5057562;28;20045;-59
2022/05/31 06:49:27;;;;;;;4.63;4.30;;;;;;;12.49;100.00;163829.75;5059405;28;20103;-59
2022/05/31 06:57:20;;;;;;;10.43;5.15;;;;;;;12.94;100.00;163948.69;5057255;28;20035;-59
2022/05/31 06:59:45;;;;;;;9.48;4.95;;;;;;;13.09;100.00;163986.53;5058243;28;20029;-59
2022/05/31 07:02:10;;;;;;;9.95;5.93;;;;;;;13.10;100.00;163990.63;5053525;28;20041;-60
2022/05/31 07:04:37;;;;;;;10.07;5.93;;;;;;;13.05;100.00;163975.75;5050563;28;20028;-59
2022/05/31 07:07:03;;;;;;;8.60;5.60;;;;;;;12.92;100.00;163943.28;5064553;28;20535;-59
2022/05/31 07:09:29;;;;;;;9.40;4.90;;;;;;;12.77;100.00;163902.75;5070227;28;20025;-59
2022/05/31 07:11:57;;;;;;;11.07;5.20;;;;;;;12.69;100.00;163882.47;5068659;28;20537;-59
2022/05/31 07:14:24;;;;;;;8.13;5.22;;;;;;;12.57;100.00;163851.38;5069846;28;20039;-59
2022/05/31 07:16:49;;;;;;;8.68;5.10;;;;;;;12.60;100.00;163858.13;5068182;28;20499;-60
2022/05/31 07:19:15;;;;;;;5.80;5.13;;;;;;;12.53;100.00;163840.59;5070286;28;20024;-59
2022/05/31 07:21:40;;;;;;;9.05;5.90;;;;;;;12.51;100.00;163835.16;5068331;28;20040;-59
2022/05/31 07:24:06;;;;;;;15.18;6.65;;;;;;;12.58;100.00;163854.09;5069938;28;20048;-59
2022/05/31 07:26:31;;;;;;;9.45;4.95;;;;;;;12.64;100.00;163870.28;5068785;28;20089;-59
2022/05/31 07:28:57;;;;;;;7.82;4.63;;;;;;;12.68;100.00;163881.13;5065341;28;20063;-59
2022/05/31 07:31:22;;;;;;;12.57;6.10;;;;;;;12.76;100.00;163901.38;5056757;28;20048;-59
2022/05/31 07:33:48;;;;;;;11.63;6.20;;;;;;;12.70;100.00;163885.19;5045404;28;20579;-59
2022/05/31 07:36:13;;;;;;;9.30;5.55;;;;;;;12.64;100.00;163870.28;5027403;28;20045;-59
2022/05/31 07:38:41;;;;;;;10.90;6.43;;;;;;;12.63;100.00;163867.59;5029937;28;20030;-59
2022/05/31 07:41:07;;;;;;;9.93;5.80;;;;;;;12.48;100.00;163827.03;5027795;28;20144;-59
2022/05/31 07:43:32;;;;;;;8.80;5.93;;;;;;;12.50;100.00;163832.47;5029721;28;20026;-59
2022/05/31 07:46:06;;;;;;;7.38;6.65;;;;;;;12.45;100.00;163818.97;5027702;28;20044;-59
2022/05/31 07:48:33;;;;;;;12.02;7.22;;;;;;;12.36;100.00;163797.34;5047944;28;20025;-59
2022/05/31 07:50:59;;;;;;;8.55;5.57;;;;;;;12.34;100.00;163790.59;5047307;28;20435;-59
2022/05/31 07:53:24;;;;;;;8.07;6.95;;;;;;;12.31;100.00;163783.84;5049463;28;20025;-59
2022/05/31 07:56:00;;;;;;;9.35;5.63;;;;;;;12.30;100.00;163779.75;5051968;28;20037;-59
2022/05/31 07:58:33;;;;;;;11.35;6.85;;;;;;;12.31;100.00;163783.84;5057474;28;20025;-59
2022/05/31 08:01:04;;;;;;;6.72;6.13;;;;;;;12.34;100.00;163791.91;5057791;28;20222;-59
2022/05/31 08:03:30;;;;;;;10.43;6.88;;;;;;;12.45;100.00;163818.97;5065790;28;20468;-59
2022/05/31 08:05:56;;;;;;;11.40;7.70;;;;;;;12.56;100.00;163847.34;5065529;28;20044;-59
2022/05/31 08:08:22;;;;;;;9.27;6.40;;;;;;;12.61;100.00;163860.84;5059745;28;20421;-59
2022/05/31 08:10:47;;;;;;;8.13;6.97;;;;;;;12.81;100.00;163913.56;5051689;28;20110;-59
2022/05/31 08:13:13;;;;;;;7.85;6.47;;;;;;;12.97;100.00;163956.81;5068490;28;20077;-59
2022/05/31 08:15:38;;;;;;;11.68;6.07;;;;;;;13.04;100.00;163973.03;5071943;28;20384;-59
2022/05/31 08:18:04;;;;;;;9.20;6.28;;;;;;;13.06;100.00;163978.47;5069234;28;20077;-59
2022/05/31 08:20:29;;;;;;;16.50;6.75;;;;;;;13.16;100.00;164005.47;5071068;28;20045;-59
2022/05/31 08:22:55;;;;;;;8.35;6.13;;;;;;;13.17;100.00;164008.19;5072553;28;20021;-59
2022/05/31 08:25:21;;;;;;;14.90;6.97;;;;;;;13.17;100.00;164008.19;5070511;28;20182;-59
2022/05/31 08:27:47;;;;;;;8.35;5.43;;;;;;;13.15;100.00;164002.75;5071938;28;20036;-59
2022/05/31 08:30:12;;;;;;;7.68;5.70;;;;;;;13.07;100.00;163981.16;5069888;28;20213;-59
2022/05/31 08:32:38;;;;;;;6.55;5.25;;;;;;;13.06;100.00;163978.47;5052483;28;20075;-59
2022/05/31 08:35:06;;;;;;;6.30;4.45;;;;;;;12.98;100.00;163958.16;5050463;28;20025;-59
2022/05/31 08:37:31;;;;;;;9.65;5.88;;;;;;;12.84;100.00;163921.69;5053078;28;20159;-59
2022/05/31 08:39:58;;;;;;;6.45;5.70;;;;;;;12.75;100.00;163897.34;5052596;28;20024;-59
2022/05/31 08:42:52;;;;;;;14.32;5.93;;;;;;;12.69;100.00;163883.84;5051103;28;20094;-59
2022/05/31 08:45:35;;;;;;;8.88;4.90;;;;;;;12.60;100.00;163858.13;5051466;28;20025;-59
2022/05/31 08:48:16;;;;;;;7.78;5.43;;;;;;;12.56;100.00;163847.34;5043136;28;20037;-59
2022/05/31 08:56:56;;;;;;;7.00;4.60;;;;;;;12.48;100.00;163827.03;5052156;28;20044;-59
2022/05/31 08:56:56;;;;;;;7.72;4.50;;;;;;;12.45;100.00;163820.28;5063187;28;20044;-59
2022/05/31 08:59:37;;;;;;;14.52;6.00;;;;;;;12.42;100.00;163810.84;5072647;28;20054;-59
2022/05/31 09:02:18;;;;;;;13.93;6.90;;;;;;;12.33;100.00;163787.88;5070385;28;20036;-59
2022/05/31 09:04:50;;;;;;;10.60;5.90;;;;;;;12.32;100.00;163786.50;5071899;28;20029;-59
2022/05/31 09:07:35;;;;;;;7.53;5.80;;;;;;;12.37;100.00;163800.03;5067345;28;20037;-59
2022/05/31 09:10:27;;;;;;;15.32;6.25;;;;;;;12.40;100.00;163805.47;5055831;28;20021;-58
2022/05/31 09:12:58;;;;;;;9.93;6.45;;;;;;;12.45;100.00;163818.97;5050189;28;20037;-59
2022/05/31 09:15:33;;;;;;;9.98;5.88;;;;;;;12.47;100.00;163825.72;5049037;28;20041;-59
2022/05/31 09:18:15;;;;;;;10.60;6.68;;;;;;;12.51;100.00;163836.50;5052006;28;20847;-59
2022/05/31 09:20:55;;;;;;;8.30;5.25;;;;;;;12.66;100.00;163875.72;5050262;28;20033;-59
2022/05/31 09:23:25;;;;;;;7.20;5.63;;;;;;;12.74;100.00;163894.63;5052041;28;20033;-59
2022/05/31 09:26:19;;;;;;;16.30;6.63;;;;;;;12.79;100.00;163908.13;5050245;28;20049;-59
2022/05/31 09:29:06;;;;;;;5.72;5.22;;;;;;;12.82;100.00;163917.59;5023964;28;20096;-59
2022/05/31 09:31:38;;;;;;;10.40;5.72;;;;;;;12.83;100.00;163918.97;5049913;28;20041;-59
2022/05/31 09:34:24;;;;;;;11.05;5.53;;;;;;;12.90;100.00;163936.53;5051465;28;20052;-59
2022/05/31 09:37:03;;;;;;;10.60;5.18;;;;;;;12.90;100.00;163937.91;5056204;28;20048;-59
2022/05/31 09:39:50;;;;;;;8.20;5.68;;;;;;;12.90;100.00;163937.91;5059606;28;20056;-59
2022/05/31 09:42:23;;;;;;;7.82;4.75;;;;;;;12.87;100.00;163929.78;5069962;28;20060;-59
2022/05/31 09:44:55;;;;;;;6.70;5.88;;;;;;;12.92;100.00;163943.28;5067247;28;20028;-59
2022/05/31 09:47:26;;;;;;;6.22;4.70;;;;;;;12.87;100.00;163928.44;5069749;28;20044;-59
2022/05/31 09:49:52;;;;;;;9.05;5.00;;;;;;;12.85;100.00;163924.34;5065287;28;20925;-59
2022/05/31 09:52:30;;;;;;;6.75;5.32;;;;;;;12.88;100.00;163932.47;5067742;28;20048;-59
2022/05/31 09:58:32;;;;;;;10.93;5.40;;;;;;;12.83;100.00;163918.97;5069598;28;20392;-59
2022/05/31 10:01:14;;;;;;;6.78;5.78;;;;;;;12.89;100.00;163935.19;5069561;28;20128;-59
2022/05/31 10:04:01;;;;;;;10.15;6.20;;;;;;;12.96;100.00;163954.13;5051575;28;20052;-59
2022/05/31 10:06:30;;;;;;;8.50;6.27;;;;;;;13.15;100.00;164004.13;5049811;28;20045;-59
2022/05/31 10:08:56;;;;;;;6.00;4.82;;;;;;;13.35;100.00;164054.16;5050596;28;20455;-59
2022/05/31 10:11:34;;;;;;;9.15;4.75;;;;;;;13.64;100.00;164132.63;5058158;28;20139;-59
2022/05/31 10:14:06;;;;;;;7.63;5.70;;;;;;;14.08;100.00;164246.25;5060107;28;20515;-59
2022/05/31 10:16:33;;;;;;;5.90;4.57;;;;;;;14.47;100.00;164349.06;5061121;28;20075;-59
2022/05/31 10:19:21;;;;;;;10.15;4.82;;;;;;;15.02;100.00;164492.53;5060769;28;20230;-59
2022/05/31 10:21:47;;;;;;;12.20;5.13;;;;;;;15.40;100.00;164592.69;5057105;28;20037;-59
2022/05/31 10:24:19;;;;;;;11.45;6.53;;;;;;;15.77;100.00;164688.84;5070005;28;20040;-59
2022/05/31 10:27:06;;;;;;;12.23;4.28;;;;;;;16.04;100.00;164760.66;5068726;28;20048;-59
2022/05/31 10:30:00;;;;;;;10.38;5.10;;;;;;;16.70;100.00;164934.03;5069716;28;20028;-59
2022/05/31 10:32:33;;;;;;;5.68;3.67;;;;;;;16.93;100.00;164995.03;5059237;28;20043;-59
2022/05/31 10:35:30;;;;;;;7.45;3.88;;;;;;;17.29;100.00;165088.53;5068598;28;20363;-59
2022/05/31 10:38:04;;;;;;;5.60;5.18;;;;;;;17.34;100.00;165102.06;5068377;28;20041;-59
2022/05/31 10:40:38;;;;;;;9.25;6.93;;;;;;;17.56;100.00;165159.00;5068245;28;20044;-59
2022/05/31 10:43:34;;;;;;;5.32;3.03;;;;;;;17.98;100.00;165270.22;5068749;28;20036;-59
2022/05/31 10:46:04;;;;;;;8.60;4.32;;;;;;;18.23;100.00;165335.28;5067730;28;20542;-59
2022/05/31 10:48:29;;;;;;;6.30;5.63;;;;;;;18.15;100.00;165313.56;5069784;28;20032;-59
2022/05/31 10:51:13;;;;;;;4.18;3.78;;;;;;;18.00;100.00;165275.59;5067599;28;20360;-59
2022/05/31 10:53:54;;;;;;;8.07;4.72;;;;;;;17.81;100.00;165224.06;5050208;28;20028;-59
2022/05/31 10:56:28;;;;;;;6.32;4.82;;;;;;;17.86;100.00;165237.59;5048396;28;20069;-58
2022/05/31 10:58:59;;;;;;;7.90;5.95;;;;;;;17.67;100.00;165187.44;5049645;28;20028;-59
2022/05/31 11:01:35;;;;;;;7.25;4.40;;;;;;;17.50;100.00;165142.72;5048687;28;20120;-59
2022/05/31 11:04:22;;;;;;;8.43;4.20;;;;;;;17.55;100.00;165157.66;5049521;28;20083;-59
2022/05/31 11:07:06;;;;;;;9.57;5.00;;;;;;;17.57;100.00;165161.72;5048443;28;20125;-59
2022/05/31 11:13:06;;;;;;;8.65;4.68;;;;;;;17.97;100.00;165266.13;5053694;28;20044;-59
2022/05/31 11:16:08;;;;;;;7.63;3.88;;;;;;;18.15;100.00;165313.56;5058974;28;20067;-59
2022/05/31 11:18:51;;;;;;;7.85;3.67;;;;;;;18.12;97.35;165305.47;5060064;28;20021;-59
2022/05/31 11:21:39;;;;;;;4.25;3.33;;;;;;;17.99;100.00;165271.56;5057076;28;20052;-58
2022/05/31 11:24:22;;;;;;;;;;;;;;;18.18;100.00;165323.06;5059903;28;20131;-59
2022/05/31 11:26:58;;;;;;;8.63;4.03;;;;;;;18.41;97.28;165381.38;5057314;28;19917;-59
2022/05/31 11:29:49;;;;;;;9.25;3.55;;;;;;;19.06;95.33;165552.31;5062490;28;20036;-59
2022/05/31 11:32:24;;;;;;;5.68;3.67;;;;;;;19.09;93.20;165561.81;5067364;28;20181;-59
2022/05/31 11:35:09;;;;;;;5.40;3.50;;;;;;;19.21;90.29;165593.00;5069260;28;20111;-59
2022/05/31 11:38:01;;;;;;;7.85;3.85;;;;;;;19.38;84.75;165636.44;5052324;28;20452;-59
2022/05/31 11:40:52;;;;;;;5.15;3.17;;;;;;;18.85;79.09;165498.00;5040251;28;20045;-59
2022/05/31 11:43:26;;;;;;;6.43;3.92;;;;;;;19.09;82.93;165561.81;5054597;28;20104;-59
2022/05/31 11:46:10;;;;;;;15.98;3.88;;;;;;;19.40;76.24;165643.22;5061707;28;20083;-59
2022/05/31 11:48:51;;;;;;;5.22;3.03;;;;;;;19.41;70.26;165644.53;5053214;28;20024;-59
2022/05/31 11:51:39;;;;;;;4.72;2.70;;;;;;;19.86;72.60;165764.00;5052414;28;20037;-59